Schofield Barracks, Hawaii
Current Conditions -  °F | °C
As of 1:58 AM on Thursday 27 Nov 2014 (Local Time) from PHHI Reporting Station
Scattered Clouds Scattered Clouds  
Wind Chill: 70°   Ceiling: Unl
Heat Index: 70°   Visibility: 10mi
Dew Point: 60°   Wind: 6mph
Humidity: 70%   Direction: 40°NE
Pressure: 30.09"   Gusts: NA
Location:  21.5°N, 158.06°W
Report Text: PHHI 271158Z AUTO 04005KT 10SM SCT039 21/16 A3009 RMK AO2 SLP181 60000 T02120156 10213 20206 56007 $
Loading
Personal Weather Stations






























Interactive Weather Map New forecast layout! Learn more

10-Day Weather Forecast

Advertisements
Track Severe Weather on mobile